createdAt,value
2018-03-25T00:02:10.416Z,5.40
2018-03-25T00:04:37.880Z,5.20
2018-03-25T00:07:05.943Z,5.50
2018-03-25T00:09:33.397Z,5.60
2018-03-25T00:12:01.146Z,5.60
2018-03-25T00:14:28.586Z,5.60
2018-03-25T00:16:56.047Z,5.60
2018-03-25T00:19:23.508Z,5.60
2018-03-25T00:21:51.302Z,5.40
2018-03-25T00:24:18.791Z,5.40
2018-03-25T00:26:46.221Z,5.50
2018-03-25T00:29:13.680Z,5.30
2018-03-25T00:31:41.143Z,5.20
2018-03-25T00:34:08.596Z,5.20
2018-03-25T00:36:36.372Z,5.40
2018-03-25T00:39:03.807Z,5.60
2018-03-25T00:41:32.036Z,5.30
2018-03-25T00:43:59.504Z,5.20
2018-03-25T00:46:26.967Z,5.20
2018-03-25T00:48:54.415Z,5.20
2018-03-25T00:51:21.862Z,5.30
2018-03-25T00:53:50.151Z,5.10
2018-03-25T00:56:17.590Z,5.10
2018-03-25T00:58:45.811Z,5.20
2018-03-25T01:01:13.241Z,5.20
2018-03-25T01:03:40.685Z,5.10
2018-03-25T01:06:08.935Z,5.20
2018-03-25T01:08:36.378Z,5.30
2018-03-25T01:11:03.823Z,5.30
2018-03-25T01:13:31.272Z,5.30
2018-03-25T01:16:09.827Z,5.10
2018-03-25T01:18:37.286Z,4.90
2018-03-25T01:21:04.747Z,4.80
2018-03-25T01:23:32.222Z,4.90
2018-03-25T01:25:59.682Z,5.00
2018-03-25T01:28:27.903Z,5.30
2018-03-25T01:30:56.138Z,5.20
2018-03-25T01:33:24.430Z,5.30
2018-03-25T01:35:51.882Z,5.20
2018-03-25T01:38:19.322Z,5.20
2018-03-25T01:40:46.804Z,5.10
2018-03-25T01:43:14.242Z,5.10
2018-03-25T01:45:41.685Z,5.00
2018-03-25T01:48:09.919Z,5.00
2018-03-25T01:50:37.377Z,5.00
2018-03-25T01:53:04.833Z,5.10
2018-03-25T01:55:32.318Z,5.10
2018-03-25T01:57:59.766Z,4.80
2018-03-25T02:00:27.982Z,4.70
2018-03-25T02:02:56.215Z,4.70
2018-03-25T02:05:23.671Z,4.70
2018-03-25T02:07:51.114Z,4.60
2018-03-25T02:10:18.558Z,4.70
2018-03-25T02:12:46.778Z,4.80
2018-03-25T02:15:14.202Z,4.80
2018-03-25T02:17:42.413Z,4.90
2018-03-25T02:20:09.862Z,4.90
2018-03-25T02:22:37.311Z,5.00
2018-03-25T02:25:04.749Z,5.00
2018-03-25T02:27:32.199Z,5.00
2018-03-25T02:29:59.693Z,5.00
2018-03-25T02:32:27.906Z,4.90
2018-03-25T02:34:55.355Z,4.90
2018-03-25T02:37:22.822Z,4.70
2018-03-25T02:39:50.271Z,4.50
2018-03-25T02:42:17.718Z,4.60
2018-03-25T02:44:45.960Z,4.60
2018-03-25T02:47:13.415Z,4.60
2018-03-25T02:49:40.862Z,4.80
2018-03-25T02:52:08.290Z,4.70
2018-03-25T02:54:36.515Z,4.80
2018-03-25T02:57:03.982Z,4.80
2018-03-25T02:59:31.414Z,4.80
2018-03-25T03:01:58.923Z,4.90
2018-03-25T03:04:26.375Z,4.90
2018-03-25T03:06:54.586Z,4.80
2018-03-25T03:09:22.842Z,4.80
2018-03-25T03:11:50.284Z,4.80
2018-03-25T03:14:17.762Z,4.80
2018-03-25T03:16:45.217Z,4.80
2018-03-25T03:19:12.693Z,4.80
2018-03-25T03:21:40.150Z,4.80
2018-03-25T03:24:08.358Z,4.60
2018-03-25T03:26:35.830Z,4.60
2018-03-25T03:29:04.063Z,4.60
2018-03-25T03:31:31.518Z,4.60
2018-03-25T03:33:58.982Z,4.60
2018-03-25T03:36:26.436Z,4.60
2018-03-25T03:38:53.882Z,4.60
2018-03-25T03:41:21.357Z,4.60
2018-03-25T03:43:48.810Z,4.70
2018-03-25T03:46:16.260Z,4.70
2018-03-25T03:48:44.474Z,4.80
2018-03-25T03:51:11.934Z,4.70
2018-03-25T03:53:39.379Z,4.70
2018-03-25T03:56:06.830Z,4.70
2018-03-25T03:58:34.275Z,4.70
2018-03-25T04:01:01.728Z,4.60
2018-03-25T04:03:29.182Z,4.70
2018-03-25T04:05:56.644Z,4.70
2018-03-25T04:08:24.084Z,4.70
2018-03-25T04:10:51.540Z,4.70
2018-03-25T04:13:19.004Z,4.60
2018-03-25T04:15:46.453Z,4.50
2018-03-25T04:18:13.911Z,4.40
2018-03-25T04:20:41.351Z,4.30
2018-03-25T04:23:09.567Z,4.50
2018-03-25T04:25:37.013Z,4.50
2018-03-25T04:28:04.445Z,4.50
2018-03-25T04:30:32.701Z,4.40
2018-03-25T04:33:00.180Z,4.40
2018-03-25T04:35:27.684Z,4.30
2018-03-25T04:37:55.093Z,4.30
2018-03-25T04:40:22.722Z,4.40
2018-03-25T04:42:50.163Z,4.30
2018-03-25T04:45:17.620Z,4.30
2018-03-25T04:47:45.823Z,4.30
2018-03-25T04:50:13.280Z,4.30
2018-03-25T04:52:40.732Z,4.20
2018-03-25T04:55:08.186Z,4.10
2018-03-25T04:57:36.399Z,4.20
2018-03-25T05:00:03.843Z,4.20
2018-03-25T05:02:31.292Z,4.20
2018-03-25T05:04:59.514Z,4.20
2018-03-25T05:07:26.947Z,4.20
2018-03-25T05:09:54.385Z,4.10
2018-03-25T05:12:22.594Z,4.10
2018-03-25T05:14:50.035Z,4.10
2018-03-25T05:17:18.257Z,4.10
2018-03-25T05:19:45.704Z,4.10
2018-03-25T05:22:13.126Z,4.20
2018-03-25T05:24:41.358Z,4.00
2018-03-25T05:27:08.804Z,4.00
2018-03-25T05:29:36.242Z,4.00
2018-03-25T05:32:04.480Z,3.90
2018-03-25T05:34:31.926Z,3.90
2018-03-25T05:36:59.386Z,4.00
2018-03-25T05:39:26.838Z,4.10
2018-03-25T05:41:54.289Z,4.10
2018-03-25T05:44:24.563Z,4.10
2018-03-25T05:46:52.086Z,4.10
2018-03-25T05:49:19.526Z,4.20
2018-03-25T05:51:46.956Z,4.20
2018-03-25T05:54:14.395Z,4.00
2018-03-25T05:56:41.847Z,4.10
2018-03-25T05:59:09.291Z,4.00
2018-03-25T06:01:36.787Z,4.10
2018-03-25T06:04:04.238Z,4.10
2018-03-25T06:06:31.670Z,3.80
2018-03-25T06:08:59.892Z,3.90
2018-03-25T06:11:27.343Z,3.90
2018-03-25T06:13:54.795Z,3.90
2018-03-25T06:16:22.234Z,3.90
2018-03-25T06:18:50.478Z,3.90
2018-03-25T06:21:17.922Z,3.80
2018-03-25T06:23:45.386Z,3.90
2018-03-25T06:26:12.842Z,4.00
2018-03-25T06:28:40.304Z,4.00
2018-03-25T06:31:07.780Z,4.00
2018-03-25T06:33:35.219Z,4.10
2018-03-25T06:36:02.665Z,4.00
2018-03-25T06:38:30.145Z,4.10
2018-03-25T06:40:57.577Z,4.10
2018-03-25T06:43:25.787Z,4.20
2018-03-25T06:45:53.946Z,4.20
2018-03-25T06:48:21.383Z,4.20
2018-03-25T06:50:48.834Z,4.20
2018-03-25T06:53:16.299Z,4.20
2018-03-25T06:55:43.756Z,4.30
2018-03-25T06:58:11.195Z,4.30
2018-03-25T07:00:38.644Z,4.40
2018-03-25T07:03:06.090Z,4.40
2018-03-25T07:05:33.531Z,4.40
2018-03-25T07:08:01.738Z,4.50
2018-03-25T07:10:29.174Z,4.40
2018-03-25T07:12:57.396Z,4.50
2018-03-25T07:15:24.847Z,4.50
2018-03-25T07:17:52.299Z,4.60
2018-03-25T07:20:19.747Z,4.70
2018-03-25T07:22:47.205Z,4.80
2018-03-25T07:25:15.415Z,4.90
2018-03-25T07:27:42.878Z,4.90
2018-03-25T07:30:10.382Z,4.90
2018-03-25T07:32:37.804Z,4.90
2018-03-25T07:35:05.263Z,5.00
2018-03-25T07:37:32.715Z,5.00
2018-03-25T07:40:00.162Z,5.00
2018-03-25T07:42:27.604Z,5.00
2018-03-25T07:44:55.073Z,5.10
2018-03-25T07:47:23.316Z,5.20
2018-03-25T07:49:50.763Z,5.20
2018-03-25T07:52:18.245Z,5.20
2018-03-25T07:54:45.689Z,5.20
2018-03-25T07:57:13.150Z,5.20
2018-03-25T07:59:40.621Z,5.30
2018-03-25T08:02:08.093Z,5.40
2018-03-25T08:04:35.534Z,5.40
2018-03-25T08:07:03.770Z,5.40
2018-03-25T08:09:31.244Z,5.40
2018-03-25T08:11:59.486Z,5.40
2018-03-25T08:14:26.935Z,5.40
2018-03-25T08:16:54.382Z,5.40
2018-03-25T08:19:21.904Z,5.50
2018-03-25T08:21:50.135Z,5.60
2018-03-25T08:24:19.772Z,5.50
2018-03-25T08:26:47.896Z,5.70
2018-03-25T08:29:15.382Z,5.70
2018-03-25T08:31:42.836Z,5.90
2018-03-25T08:34:10.416Z,6.00
2018-03-25T08:36:37.887Z,5.90
2018-03-25T08:39:05.370Z,6.00
2018-03-25T08:41:33.675Z,6.10
2018-03-25T08:44:01.926Z,6.20
2018-03-25T08:46:29.355Z,6.20
2018-03-25T08:48:56.813Z,6.20
2018-03-25T08:51:24.274Z,6.20
2018-03-25T08:53:52.088Z,6.10
2018-03-25T08:56:19.558Z,6.10
2018-03-25T08:58:47.033Z,6.10
2018-03-25T09:01:14.475Z,6.00
2018-03-25T09:03:41.953Z,6.10
2018-03-25T09:06:13.140Z,6.10
2018-03-25T09:08:40.667Z,6.10
2018-03-25T09:11:09.310Z,6.10
2018-03-25T09:13:36.779Z,6.00
2018-03-25T09:16:04.226Z,5.90
2018-03-25T09:18:31.693Z,6.10
2018-03-25T09:20:59.150Z,6.30
2018-03-25T09:23:26.606Z,6.30
2018-03-25T09:25:54.069Z,6.40
2018-03-25T09:28:21.506Z,6.50
2018-03-25T09:30:49.722Z,6.60
2018-03-25T09:33:17.184Z,6.60
2018-03-25T09:35:44.659Z,6.60
2018-03-25T09:38:12.126Z,6.60
2018-03-25T09:40:39.596Z,6.50
2018-03-25T09:43:07.051Z,6.60
2018-03-25T09:45:35.290Z,6.60
2018-03-25T09:48:03.512Z,6.60
2018-03-25T09:50:30.980Z,6.60
2018-03-25T09:52:58.419Z,6.60
2018-03-25T09:55:25.892Z,6.70
2018-03-25T09:57:54.064Z,6.70
2018-03-25T10:00:27.264Z,6.70
2018-03-25T10:02:58.639Z,6.90
2018-03-25T10:05:26.088Z,7.10
2018-03-25T10:07:53.542Z,6.90
2018-03-25T10:10:21.011Z,7.00
2018-03-25T10:12:48.460Z,7.10
2018-03-25T10:15:15.914Z,7.30
2018-03-25T10:17:43.351Z,7.40
2018-03-25T10:20:12.505Z,7.40
2018-03-25T10:22:39.955Z,7.40
2018-03-25T10:25:07.417Z,7.50
2018-03-25T10:27:34.862Z,7.50
2018-03-25T10:30:02.310Z,7.60
2018-03-25T10:32:29.779Z,7.70
2018-03-25T10:34:58.007Z,8.00
2018-03-25T10:37:26.240Z,8.10
2018-03-25T10:39:54.479Z,8.30
2018-03-25T10:42:21.939Z,8.30
2018-03-25T10:44:49.380Z,8.20
2018-03-25T10:47:16.832Z,8.20
2018-03-25T10:49:44.308Z,8.40
2018-03-25T10:52:11.744Z,8.40
2018-03-25T10:54:39.196Z,8.70
2018-03-25T10:57:06.650Z,8.70
2018-03-25T10:59:34.860Z,8.40
2018-03-25T11:02:02.299Z,8.40
2018-03-25T11:04:29.751Z,8.40
2018-03-25T11:06:57.968Z,8.50
2018-03-25T11:09:26.200Z,8.50
2018-03-25T11:11:53.656Z,8.50
2018-03-25T11:14:21.116Z,8.60
2018-03-25T11:16:48.572Z,8.50
2018-03-25T11:19:16.016Z,8.80
2018-03-25T11:21:43.475Z,8.90
2018-03-25T11:24:10.929Z,8.80
2018-03-25T11:26:38.382Z,8.80
2018-03-25T11:29:05.847Z,8.90
2018-03-25T11:31:33.308Z,9.00
2018-03-25T11:34:00.754Z,9.20
2018-03-25T11:36:28.204Z,9.10
2018-03-25T11:38:56.440Z,8.70
2018-03-25T11:41:23.881Z,8.80
2018-03-25T11:43:51.333Z,8.80
2018-03-25T11:46:18.794Z,8.80
2018-03-25T11:48:46.243Z,8.90
2018-03-25T11:51:13.688Z,9.00
2018-03-25T11:53:41.898Z,9.10
2018-03-25T11:56:09.343Z,9.10
2018-03-25T11:58:36.794Z,9.20
2018-03-25T12:01:05.010Z,9.30
2018-03-25T12:03:32.480Z,9.20
2018-03-25T12:06:00.645Z,9.20
2018-03-25T12:08:28.111Z,9.40
2018-03-25T12:10:55.753Z,9.50
2018-03-25T12:13:24.130Z,9.60
2018-03-25T12:15:52.346Z,9.50
2018-03-25T12:18:19.958Z,9.50
2018-03-25T12:20:48.348Z,9.50
2018-03-25T12:23:16.566Z,9.40
2018-03-25T12:25:44.036Z,9.40
2018-03-25T12:28:11.476Z,9.40
2018-03-25T12:30:38.929Z,9.40
2018-03-25T12:33:07.156Z,9.60
2018-03-25T12:35:34.626Z,9.50
2018-03-25T12:38:02.839Z,9.60
2018-03-25T12:40:30.278Z,9.60
2018-03-25T12:42:57.734Z,9.60
2018-03-25T12:45:25.186Z,9.70
2018-03-25T12:47:52.623Z,9.60
2018-03-25T12:50:20.242Z,9.80
2018-03-25T12:52:47.694Z,9.90
2018-03-25T12:55:15.172Z,10.10
2018-03-25T12:57:42.623Z,10.10
2018-03-25T13:00:10.063Z,10.00
2018-03-25T13:02:37.511Z,10.00
2018-03-25T13:05:04.965Z,10.20
2018-03-25T13:07:32.402Z,10.20
2018-03-25T13:10:00.614Z,10.40
2018-03-25T13:12:28.100Z,10.30
2018-03-25T13:14:55.567Z,10.30
2018-03-25T13:17:23.030Z,10.40
2018-03-25T13:19:50.482Z,10.40
2018-03-25T13:22:17.925Z,10.50
2018-03-25T13:24:45.361Z,10.40
2018-03-25T13:27:13.608Z,10.40
2018-03-25T13:29:41.059Z,10.30
2018-03-25T13:32:08.556Z,10.40
2018-03-25T13:34:36.015Z,10.40
2018-03-25T13:37:03.484Z,10.50
2018-03-25T13:39:31.736Z,10.20
2018-03-25T13:41:59.217Z,10.20
2018-03-25T13:44:26.662Z,10.30
2018-03-25T13:46:54.156Z,10.40
2018-03-25T13:49:22.378Z,10.40
2018-03-25T13:51:49.833Z,10.40
2018-03-25T13:54:17.301Z,10.40
2018-03-25T13:56:44.809Z,10.40
2018-03-25T13:59:12.909Z,10.30
2018-03-25T14:01:41.127Z,10.50
2018-03-25T14:04:08.590Z,10.50
2018-03-25T14:06:36.035Z,10.60
2018-03-25T14:09:03.502Z,10.80
2018-03-25T14:11:30.957Z,10.60
2018-03-25T14:16:33.066Z,10.80
2018-03-25T14:19:00.550Z,10.80
2018-03-25T14:21:27.994Z,10.90
2018-03-25T14:23:55.454Z,11.00
2018-03-25T14:26:23.662Z,10.90
2018-03-25T14:28:51.164Z,10.80
2018-03-25T14:31:19.399Z,10.80
2018-03-25T14:33:46.876Z,10.70
2018-03-25T14:36:14.317Z,10.70
2018-03-25T14:38:41.804Z,10.70
2018-03-25T14:41:09.280Z,10.80
2018-03-25T14:43:36.727Z,10.70
2018-03-25T14:46:04.192Z,10.50
2018-03-25T14:48:31.643Z,10.70
2018-03-25T14:50:59.125Z,10.60
2018-03-25T14:53:26.599Z,10.90
2018-03-25T14:55:54.103Z,10.60
2018-03-25T14:58:21.568Z,10.60
2018-03-25T15:00:49.024Z,10.40
2018-03-25T15:03:16.491Z,10.50
2018-03-25T15:05:43.936Z,10.30
2018-03-25T15:08:11.392Z,10.40
2018-03-25T15:10:38.849Z,10.40
2018-03-25T15:13:07.091Z,10.40
2018-03-25T15:15:34.546Z,10.40
2018-03-25T15:18:01.984Z,10.60
2018-03-25T15:20:30.365Z,10.60
2018-03-25T15:22:57.812Z,10.90
2018-03-25T15:25:25.264Z,11.00
2018-03-25T15:27:53.493Z,10.70
2018-03-25T15:30:20.941Z,10.70
2018-03-25T15:32:48.386Z,10.80
2018-03-25T15:35:15.856Z,10.80
2018-03-25T15:37:43.315Z,10.50
2018-03-25T15:40:10.773Z,10.70
2018-03-25T15:42:38.216Z,10.80
2018-03-25T15:45:06.446Z,10.50
2018-03-25T15:47:33.924Z,10.50
2018-03-25T15:50:01.420Z,10.50
2018-03-25T15:52:28.880Z,10.60
2018-03-25T15:54:57.079Z,10.60
2018-03-25T15:57:24.535Z,10.60
2018-03-25T15:59:51.994Z,10.40
2018-03-25T16:02:20.234Z,10.20
2018-03-25T16:04:47.707Z,10.20
2018-03-25T16:07:15.175Z,10.20
2018-03-25T16:09:42.651Z,10.20
2018-03-25T16:12:10.105Z,10.10
2018-03-25T16:14:37.617Z,10.50
2018-03-25T16:17:06.012Z,10.60
2018-03-25T16:19:33.530Z,10.50
2018-03-25T16:22:01.811Z,10.70
2018-03-25T16:24:29.237Z,10.70
2018-03-25T16:26:56.701Z,10.80
2018-03-25T16:29:24.440Z,10.10
2018-03-25T16:31:52.655Z,10.50
2018-03-25T16:34:20.128Z,10.50
2018-03-25T16:36:47.573Z,10.20
2018-03-25T16:39:15.043Z,10.00
2018-03-25T16:41:42.511Z,10.50
2018-03-25T16:44:09.969Z,10.50
2018-03-25T16:46:37.426Z,10.30
2018-03-25T16:49:04.911Z,10.50
2018-03-25T16:51:32.375Z,10.50
2018-03-25T16:54:00.635Z,10.80
2018-03-25T16:56:28.093Z,10.80
2018-03-25T16:58:55.601Z,10.70
2018-03-25T17:01:23.843Z,10.70
2018-03-25T17:03:51.320Z,10.70
2018-03-25T17:06:18.783Z,10.50
2018-03-25T17:08:46.253Z,10.50
2018-03-25T17:11:14.471Z,10.50
2018-03-25T17:13:41.953Z,10.50
2018-03-25T17:16:09.646Z,10.20
2018-03-25T17:18:37.114Z,10.60
2018-03-25T17:21:04.540Z,10.70
2018-03-25T17:23:31.994Z,10.70
2018-03-25T17:25:59.451Z,10.70
2018-03-25T17:28:26.938Z,10.90
2018-03-25T17:30:54.408Z,10.30
2018-03-25T17:33:21.894Z,10.10
2018-03-25T17:35:49.357Z,10.00
2018-03-25T17:38:16.820Z,10.10
2018-03-25T17:40:44.280Z,10.20
2018-03-25T17:43:11.737Z,10.20
2018-03-25T17:45:39.220Z,10.10
2018-03-25T17:48:06.673Z,9.30
2018-03-25T17:50:34.204Z,9.40
2018-03-25T17:53:01.666Z,9.20
2018-03-25T17:55:29.113Z,9.10
2018-03-25T17:57:56.576Z,9.30
2018-03-25T18:00:24.030Z,9.30
2018-03-25T18:02:51.493Z,9.20
2018-03-25T18:05:18.943Z,9.20
2018-03-25T18:07:46.421Z,9.30
2018-03-25T18:10:13.860Z,9.20
2018-03-25T18:12:42.084Z,9.50
2018-03-25T18:15:09.583Z,9.50
2018-03-25T18:17:37.024Z,9.50
2018-03-25T18:20:04.488Z,9.40
2018-03-25T18:22:31.969Z,9.70
2018-03-25T18:24:59.428Z,9.90
2018-03-25T18:27:26.879Z,9.60
2018-03-25T18:29:54.348Z,9.30
2018-03-25T18:32:21.804Z,9.20
2018-03-25T18:34:49.272Z,8.70
2018-03-25T18:37:16.764Z,8.80
2018-03-25T18:39:44.179Z,8.50
2018-03-25T18:42:11.619Z,8.20
2018-03-25T18:44:39.370Z,8.60
2018-03-25T18:47:06.836Z,9.00
2018-03-25T18:49:34.332Z,9.30
2018-03-25T18:52:01.786Z,8.90
2018-03-25T18:54:29.260Z,8.70
2018-03-25T18:56:56.700Z,9.20
2018-03-25T18:59:24.140Z,9.30
2018-03-25T19:01:52.368Z,8.70
2018-03-25T19:04:19.846Z,8.70
2018-03-25T19:06:47.296Z,8.60
2018-03-25T19:09:14.736Z,8.30
2018-03-25T19:11:42.185Z,8.40
2018-03-25T19:14:09.648Z,8.70
2018-03-25T19:16:37.200Z,8.40
2018-03-25T19:19:05.398Z,8.50
2018-03-25T19:21:32.860Z,8.50
2018-03-25T19:24:00.328Z,8.60
2018-03-25T19:26:27.786Z,8.80
2018-03-25T19:28:55.251Z,8.90
2018-03-25T19:31:22.695Z,8.10
2018-03-25T19:33:50.190Z,8.00
2018-03-25T19:36:17.630Z,8.30
2018-03-25T19:38:45.078Z,8.40
2018-03-25T19:41:13.299Z,8.20
2018-03-25T19:43:40.782Z,8.20
2018-03-25T19:46:08.260Z,8.50
2018-03-25T19:48:36.366Z,8.00
2018-03-25T19:51:04.569Z,7.30
2018-03-25T19:53:32.050Z,7.30
2018-03-25T19:56:00.256Z,7.90
2018-03-25T19:58:27.708Z,7.90
2018-03-25T20:00:55.149Z,8.10
2018-03-25T20:03:22.612Z,8.20
2018-03-25T20:05:50.113Z,8.50
2018-03-25T20:08:17.571Z,8.10
2018-03-25T20:10:45.037Z,7.90
2018-03-25T20:13:12.496Z,8.10
2018-03-25T20:15:39.957Z,7.80
2018-03-25T20:18:07.435Z,7.50
2018-03-25T20:20:34.940Z,7.60
2018-03-25T20:23:02.446Z,7.10
2018-03-25T20:25:29.902Z,7.50
2018-03-25T20:27:57.371Z,7.10
2018-03-25T20:30:24.820Z,7.50
2018-03-25T20:32:52.338Z,7.80
2018-03-25T20:35:20.545Z,7.20
2018-03-25T20:37:48.022Z,7.30
2018-03-25T20:40:15.466Z,7.40
2018-03-25T20:42:42.907Z,7.60
2018-03-25T20:45:10.362Z,7.60
2018-03-25T20:47:38.579Z,7.30
2018-03-25T20:50:06.044Z,7.30
2018-03-25T20:52:34.266Z,7.60
2018-03-25T20:57:36.439Z,7.90
2018-03-25T21:00:03.920Z,7.80
2018-03-25T21:02:31.377Z,7.40
2018-03-25T21:04:58.813Z,8.00
2018-03-25T21:07:27.636Z,8.20
2018-03-25T21:09:55.089Z,8.20
2018-03-25T21:12:22.557Z,7.90
2018-03-25T21:14:50.041Z,8.00
2018-03-25T21:17:18.255Z,8.00
2018-03-25T21:19:45.754Z,8.00
2018-03-25T21:22:13.200Z,8.00
2018-03-25T21:24:40.662Z,7.90
2018-03-25T21:27:08.899Z,7.60
2018-03-25T21:29:37.118Z,7.20
2018-03-25T21:32:05.343Z,7.60
2018-03-25T21:34:33.575Z,7.40
2018-03-25T21:37:01.322Z,7.40
2018-03-25T21:39:28.782Z,7.50
2018-03-25T21:41:56.251Z,7.60
2018-03-25T21:44:23.724Z,7.10
2018-03-25T21:46:51.211Z,6.60
2018-03-25T21:49:18.671Z,7.20
2018-03-25T21:51:46.210Z,7.40
2018-03-25T21:54:13.598Z,7.30
2018-03-25T21:56:41.033Z,7.50
2018-03-25T21:59:08.500Z,7.70
2018-03-25T22:01:35.958Z,7.60
2018-03-25T22:04:03.416Z,7.60
2018-03-25T22:06:30.875Z,7.60
2018-03-25T22:08:58.323Z,7.50
2018-03-25T22:11:25.795Z,7.60
2018-03-25T22:13:53.325Z,7.40
2018-03-25T22:16:20.781Z,7.60
2018-03-25T22:18:59.119Z,7.40
2018-03-25T22:21:27.375Z,7.60
2018-03-25T22:23:54.814Z,7.60
2018-03-25T22:26:22.276Z,7.60
2018-03-25T22:28:49.736Z,7.60
2018-03-25T22:31:17.202Z,7.60
2018-03-25T22:33:44.667Z,7.40
2018-03-25T22:36:12.114Z,7.30
2018-03-25T22:38:39.584Z,7.20
2018-03-25T22:41:07.018Z,7.30
2018-03-25T22:43:34.495Z,7.30
2018-03-25T22:46:01.954Z,7.30
2018-03-25T22:48:29.419Z,7.30
2018-03-25T22:50:56.871Z,7.30
2018-03-25T22:53:24.342Z,7.10
2018-03-25T22:55:51.810Z,7.10
2018-03-25T22:58:19.261Z,6.80
2018-03-25T23:00:47.414Z,7.10
2018-03-25T23:03:15.657Z,6.90
2018-03-25T23:05:43.113Z,6.90
2018-03-25T23:08:10.569Z,6.90
2018-03-25T23:10:38.038Z,7.00
2018-03-25T23:13:05.517Z,7.20
2018-03-25T23:15:34.511Z,6.90
2018-03-25T23:18:02.007Z,6.90
2018-03-25T23:20:30.518Z,6.80
2018-03-25T23:22:58.010Z,6.80
2018-03-25T23:25:25.510Z,6.90
2018-03-25T23:27:52.934Z,6.80
2018-03-25T23:30:20.386Z,6.80
2018-03-25T23:32:47.871Z,6.70
2018-03-25T23:35:15.305Z,6.60
2018-03-25T23:37:42.768Z,6.50
2018-03-25T23:40:10.231Z,6.50
2018-03-25T23:42:37.679Z,6.60
2018-03-25T23:45:05.324Z,6.50
2018-03-25T23:47:33.550Z,6.60
2018-03-25T23:50:01.025Z,6.60
2018-03-25T23:52:28.494Z,6.80
2018-03-25T23:54:55.951Z,6.60
2018-03-25T23:57:23.408Z,6.60
2018-03-25T23:59:50.864Z,6.80
